Time;durP1;ratioP1;P1;durP2;ratioP2;P2;SDS_P1;SDS_P2;PMS_P1;PMS_P2;Temp;Humidity;BMP_temperature;BMP_pressure;BME280_temperature;BME280_humidity;BME280_pressure;Samples;Min_cycle;Max_cycle;Signal;HPM_P1;HPM_P2
2023/07/06 00:02:23;;;;;;;7.78;5.88;;;;;;;;;;4957282;28;20501;-84
2023/07/06 00:04:49;;;;;;;10.23;6.75;;;;;;;;;;4958061;28;20800;-84
2023/07/06 00:07:21;;;;;;;8.35;6.25;;;;;;;;;;4955689;28;20046;-84
2023/07/06 00:09:50;;;;;;;10.18;6.43;;;;;;;;;;4957681;28;20193;-84
2023/07/06 00:12:18;;;;;;;11.82;6.90;;;;;;;;;;4943515;28;20053;-84
2023/07/06 00:14:44;;;;;;;8.15;6.43;;;;;;;;;;4944156;28;20046;-84
2023/07/06 00:17:11;;;;;;;13.15;6.53;;;;;;;;;;4940671;28;20057;-84
2023/07/06 00:19:37;;;;;;;7.03;6.30;;;;;;;;;;4958100;28;20046;-84
2023/07/06 00:22:03;;;;;;;7.20;6.38;;;;;;;;;;4950210;28;20379;-84
2023/07/06 00:24:30;;;;;;;10.95;7.30;;;;;;;;;;4944334;28;20405;-84
2023/07/06 00:26:56;;;;;;;9.40;6.82;;;;;;;;;;4924434;28;20046;-84
2023/07/06 00:29:23;;;;;;;9.40;6.43;;;;;;;;;;4971990;28;20496;-84
2023/07/06 00:31:53;;;;;;;7.95;6.53;;;;;;;;;;4962217;28;20074;-83
2023/07/06 00:34:19;;;;;;;9.18;6.43;;;;;;;;;;4977685;28;20042;-84
2023/07/06 00:36:46;;;;;;;9.05;6.88;;;;;;;;;;4959654;28;20042;-83
2023/07/06 00:39:13;;;;;;;11.68;7.70;;;;;;;;;;4934501;28;21296;-84
2023/07/06 00:41:39;;;;;;;11.48;8.07;;;;;;;;;;4939686;28;20045;-84
2023/07/06 00:44:05;;;;;;;9.60;7.55;;;;;;;;;;4952709;28;20038;-84
2023/07/06 00:46:36;;;;;;;10.35;7.53;;;;;;;;;;4943288;28;20042;-84
2023/07/06 00:49:03;;;;;;;18.77;7.97;;;;;;;;;;4938275;28;20042;-84
2023/07/06 00:51:32;;;;;;;10.52;7.75;;;;;;;;;;4957464;28;20081;-84
2023/07/06 00:54:06;;;;;;;11.50;7.88;;;;;;;;;;4968123;28;20093;-84
2023/07/06 00:56:36;;;;;;;12.30;7.38;;;;;;;;;;4941393;28;20065;-84
2023/07/06 00:59:05;;;;;;;8.63;7.72;;;;;;;;;;4954350;28;20054;-84
2023/07/06 01:01:35;;;;;;;9.70;7.25;;;;;;;;;;4942400;28;20045;-84
2023/07/06 01:04:01;;;;;;;13.18;8.45;;;;;;;;;;4935677;28;20041;-84
2023/07/06 01:06:32;;;;;;;9.23;7.50;;;;;;;;;;4943157;28;20575;-84
2023/07/06 01:08:58;;;;;;;9.20;8.07;;;;;;;;;;4939464;28;20042;-84
2023/07/06 01:11:24;;;;;;;9.60;8.52;;;;;;;;;;4943046;28;20038;-84
2023/07/06 01:13:54;;;;;;;13.07;8.40;;;;;;;;;;4951748;28;20097;-84
2023/07/06 01:16:26;;;;;;;12.55;8.60;;;;;;;;;;4943099;28;20042;-84
2023/07/06 01:19:11;;;;;;;10.35;8.43;;;;;;;;;;4956335;28;20109;-84
2023/07/06 01:21:56;;;;;;;12.68;8.23;;;;;;;;;;4959825;28;20049;-84
2023/07/06 01:24:29;;;;;;;10.30;8.57;;;;;;;;;;4939298;28;20478;-83
2023/07/06 01:26:58;;;;;;;13.23;8.50;;;;;;;;;;4935313;28;20046;-84
2023/07/06 01:29:26;;;;;;;11.80;8.93;;;;;;;;;;4956388;28;20712;-84
2023/07/06 01:31:57;;;;;;;11.23;7.63;;;;;;;;;;4955890;28;20045;-84
2023/07/06 01:34:29;;;;;;;11.60;8.38;;;;;;;;;;4955128;28;20147;-84
2023/07/06 01:37:05;;;;;;;10.40;8.52;;;;;;;;;;4953466;28;20108;-83
2023/07/06 01:39:31;;;;;;;11.65;8.23;;;;;;;;;;4942026;28;20034;-84
2023/07/06 01:42:13;;;;;;;11.45;7.85;;;;;;;;;;4952230;28;20489;-84
2023/07/06 01:44:46;;;;;;;10.43;7.72;;;;;;;;;;4953959;28;20054;-83
2023/07/06 01:47:12;;;;;;;12.85;8.73;;;;;;;;;;4934940;28;20042;-83
2023/07/06 01:49:38;;;;;;;10.02;8.13;;;;;;;;;;4926477;28;20042;-83
2023/07/06 01:52:13;;;;;;;10.80;8.43;;;;;;;;;;4953514;28;20048;-84
2023/07/06 01:54:41;;;;;;;11.15;7.63;;;;;;;;;;4922554;28;20046;-83
2023/07/06 01:57:08;;;;;;;10.38;7.53;;;;;;;;;;4952238;28;20448;-83
2023/07/06 01:59:35;;;;;;;13.65;8.10;;;;;;;;;;4953551;28;20516;-83
2023/07/06 02:02:01;;;;;;;10.52;7.70;;;;;;;;;;4920141;28;20038;-83
2023/07/06 02:04:31;;;;;;;11.23;7.30;;;;;;;;;;4950354;28;20147;-84
2023/07/06 02:07:00;;;;;;;12.32;7.57;;;;;;;;;;4920024;28;20089;-84
2023/07/06 02:09:26;;;;;;;8.43;7.00;;;;;;;;;;4957476;28;20038;-83
2023/07/06 02:11:52;;;;;;;8.20;7.15;;;;;;;;;;4949438;28;20042;-84
2023/07/06 02:14:19;;;;;;;8.98;8.07;;;;;;;;;;4936031;28;20058;-83
2023/07/06 02:16:45;;;;;;;11.55;8.38;;;;;;;;;;4953608;28;20497;-84
2023/07/06 02:19:11;;;;;;;8.95;6.90;;;;;;;;;;4934492;28;20046;-84
2023/07/06 02:21:38;;;;;;;10.90;7.85;;;;;;;;;;4959385;28;20432;-83
2023/07/06 02:24:04;;;;;;;11.63;8.00;;;;;;;;;;4979635;28;20042;-83
2023/07/06 02:26:30;;;;;;;9.15;8.00;;;;;;;;;;4947286;28;20042;-83
2023/07/06 02:28:56;;;;;;;12.57;8.85;;;;;;;;;;4965550;28;20040;-83
2023/07/06 02:31:22;;;;;;;12.80;7.88;;;;;;;;;;4966476;28;20125;-83
2023/07/06 02:33:48;;;;;;;9.48;8.48;;;;;;;;;;4943473;28;20042;-83
2023/07/06 02:36:16;;;;;;;10.20;7.95;;;;;;;;;;4920362;28;20037;-83
2023/07/06 02:38:42;;;;;;;7.90;7.18;;;;;;;;;;4940778;28;20034;-83
2023/07/06 02:41:08;;;;;;;9.52;8.27;;;;;;;;;;4936926;28;20042;-84
2023/07/06 02:43:34;;;;;;;10.55;7.93;;;;;;;;;;4956914;28;20082;-83
2023/07/06 02:46:01;;;;;;;11.95;7.75;;;;;;;;;;4938426;28;20559;-83
2023/07/06 02:48:27;;;;;;;9.57;8.05;;;;;;;;;;4972363;28;20053;-84
2023/07/06 02:50:54;;;;;;;10.90;8.02;;;;;;;;;;4935780;28;20058;-83
2023/07/06 02:53:20;;;;;;;12.63;8.07;;;;;;;;;;4959575;28;20050;-83
2023/07/06 02:55:46;;;;;;;9.90;8.40;;;;;;;;;;4955458;28;20038;-84
2023/07/06 02:58:13;;;;;;;9.10;7.80;;;;;;;;;;4953129;28;20045;-83
2023/07/06 03:00:39;;;;;;;10.15;7.80;;;;;;;;;;4957065;28;20054;-83
2023/07/06 03:03:08;;;;;;;9.88;8.43;;;;;;;;;;4953883;28;20129;-83
2023/07/06 03:05:37;;;;;;;10.95;9.07;;;;;;;;;;4941821;28;20043;-83
2023/07/06 03:08:03;;;;;;;10.55;8.95;;;;;;;;;;4938695;28;20042;-83
2023/07/06 03:10:31;;;;;;;11.55;8.18;;;;;;;;;;4946853;28;20082;-83
2023/07/06 03:12:57;;;;;;;10.07;8.45;;;;;;;;;;4941282;28;20042;-83
2023/07/06 03:15:23;;;;;;;12.10;8.82;;;;;;;;;;4945388;28;20030;-83
2023/07/06 03:17:51;;;;;;;15.15;9.70;;;;;;;;;;4963175;28;20597;-83
2023/07/06 03:20:19;;;;;;;11.02;8.38;;;;;;;;;;4928244;28;20061;-83
2023/07/06 03:22:51;;;;;;;13.15;9.02;;;;;;;;;;4944259;28;20084;-83
2023/07/06 03:25:18;;;;;;;11.48;8.52;;;;;;;;;;4961186;28;20038;-83
2023/07/06 03:27:46;;;;;;;15.35;8.85;;;;;;;;;;4928805;28;21245;-83
2023/07/06 03:30:12;;;;;;;11.38;9.23;;;;;;;;;;4940534;28;20070;-83
2023/07/06 03:32:39;;;;;;;12.55;9.55;;;;;;;;;;4957674;28;20099;-83
2023/07/06 03:35:05;;;;;;;13.93;9.68;;;;;;;;;;4932795;28;20124;-83
2023/07/06 03:37:31;;;;;;;12.13;9.52;;;;;;;;;;4944415;28;20042;-83
2023/07/06 03:39:57;;;;;;;10.52;8.80;;;;;;;;;;4977129;28;20053;-83
2023/07/06 03:42:23;;;;;;;10.75;9.10;;;;;;;;;;4969252;28;20512;-83
2023/07/06 03:44:55;;;;;;;12.55;10.23;;;;;;;;;;4958977;28;20054;-83
2023/07/06 03:47:23;;;;;;;11.40;9.82;;;;;;;;;;4958739;28;20511;-83
2023/07/06 03:49:49;;;;;;;12.43;9.40;;;;;;;;;;4945249;28;20054;-83
2023/07/06 03:52:17;;;;;;;12.00;8.65;;;;;;;;;;4938970;28;20042;-83
2023/07/06 03:54:44;;;;;;;12.70;9.27;;;;;;;;;;4952096;28;20056;-83
2023/07/06 03:57:11;;;;;;;12.57;9.23;;;;;;;;;;4962055;28;20999;-83
2023/07/06 03:59:38;;;;;;;12.68;9.40;;;;;;;;;;4952882;28;20057;-83
2023/07/06 04:02:09;;;;;;;11.43;9.30;;;;;;;;;;4973999;28;20054;-83
2023/07/06 04:04:35;;;;;;;13.30;8.88;;;;;;;;;;4942561;28;20046;-83
2023/07/06 04:07:01;;;;;;;15.23;10.00;;;;;;;;;;4937147;28;20046;-83
2023/07/06 04:09:28;;;;;;;15.20;10.55;;;;;;;;;;4926460;28;20077;-83
2023/07/06 04:11:54;;;;;;;13.27;9.80;;;;;;;;;;4963900;28;20047;-83
2023/07/06 04:14:24;;;;;;;13.10;9.80;;;;;;;;;;4948928;28;20409;-83
2023/07/06 04:16:51;;;;;;;11.27;10.13;;;;;;;;;;4958725;28;20038;-83
2023/07/06 04:19:17;;;;;;;13.82;10.38;;;;;;;;;;4952004;28;20506;-84
2023/07/06 04:21:43;;;;;;;12.95;9.25;;;;;;;;;;4970390;28;20405;-84
2023/07/06 04:24:09;;;;;;;11.57;9.73;;;;;;;;;;4960794;28;20389;-84
2023/07/06 04:26:35;;;;;;;14.27;9.15;;;;;;;;;;4956758;28;20030;-84
2023/07/06 04:29:02;;;;;;;12.93;9.48;;;;;;;;;;4948372;28;20803;-84
2023/07/06 04:31:28;;;;;;;15.57;10.95;;;;;;;;;;4962352;28;20074;-83
2023/07/06 04:33:54;;;;;;;15.10;10.27;;;;;;;;;;4963057;28;20042;-84
2023/07/06 04:36:20;;;;;;;13.68;10.18;;;;;;;;;;4948712;28;20039;-84
2023/07/06 04:38:46;;;;;;;11.02;8.98;;;;;;;;;;4960636;28;20062;-84
2023/07/06 04:41:13;;;;;;;11.95;9.27;;;;;;;;;;4953180;28;20143;-84
2023/07/06 04:43:39;;;;;;;13.75;8.93;;;;;;;;;;4954877;28;20141;-83
2023/07/06 04:46:05;;;;;;;12.50;9.68;;;;;;;;;;4966963;28;20042;-83
2023/07/06 04:48:34;;;;;;;14.23;9.60;;;;;;;;;;4939056;28;20193;-83
2023/07/06 04:51:01;;;;;;;15.77;10.70;;;;;;;;;;4951078;28;20141;-83
2023/07/06 04:53:28;;;;;;;13.85;9.52;;;;;;;;;;4952376;28;20042;-83
2023/07/06 05:02:14;;;;;;;16.30;9.48;;;;;;;;;;4965865;28;20057;-83
2023/07/06 05:04:40;;;;;;;15.07;9.38;;;;;;;;;;4939125;28;20410;-83
2023/07/06 05:07:12;;;;;;;14.75;8.10;;;;;;;;;;4942391;28;20045;-83
2023/07/06 05:09:40;;;;;;;15.23;9.93;;;;;;;;;;4949849;28;20046;-83
2023/07/06 05:12:07;;;;;;;16.10;10.02;;;;;;;;;;4966294;28;20464;-83
2023/07/06 05:14:36;;;;;;;13.77;9.82;;;;;;;;;;4940550;28;20035;-83
2023/07/06 05:17:02;;;;;;;11.02;8.82;;;;;;;;;;4965100;28;20038;-83
2023/07/06 05:19:28;;;;;;;11.40;8.65;;;;;;;;;;4968984;28;20126;-83
2023/07/06 05:21:55;;;;;;;14.68;10.38;;;;;;;;;;4964321;28;23756;-83
2023/07/06 05:24:30;;;;;;;12.18;9.68;;;;;;;;;;4953978;28;20066;-83
2023/07/06 05:26:56;;;;;;;18.58;9.85;;;;;;;;;;4971412;28;20046;-83
2023/07/06 05:29:22;;;;;;;16.25;9.63;;;;;;;;;;4939399;28;20062;-83
2023/07/06 05:31:48;;;;;;;14.93;9.65;;;;;;;;;;4958304;28;20049;-84
2023/07/06 05:34:14;;;;;;;17.58;10.45;;;;;;;;;;4971330;28;20038;-83
2023/07/06 05:36:40;;;;;;;13.43;9.98;;;;;;;;;;4973978;28;20553;-83
2023/07/06 05:39:06;;;;;;;14.27;9.95;;;;;;;;;;4969223;28;20049;-83
2023/07/06 05:41:33;;;;;;;12.88;10.55;;;;;;;;;;4940393;28;20042;-83
2023/07/06 05:43:59;;;;;;;15.55;10.07;;;;;;;;;;4951088;28;20054;-84
2023/07/06 05:46:25;;;;;;;16.45;10.60;;;;;;;;;;4963661;28;20092;-83
2023/07/06 05:48:51;;;;;;;20.17;10.85;;;;;;;;;;4960696;28;20997;-84
2023/07/06 05:51:17;;;;;;;18.98;10.88;;;;;;;;;;4941003;28;20051;-83
2023/07/06 05:53:44;;;;;;;16.23;10.45;;;;;;;;;;4958932;28;20121;-83
2023/07/06 05:56:10;;;;;;;18.15;10.98;;;;;;;;;;4968090;28;20472;-83
2023/07/06 05:58:37;;;;;;;15.23;10.20;;;;;;;;;;4942113;28;20367;-83
2023/07/06 06:01:04;;;;;;;16.63;10.25;;;;;;;;;;4969773;28;20132;-83
2023/07/06 06:03:30;;;;;;;19.80;10.88;;;;;;;;;;4956774;28;20044;-83
2023/07/06 06:05:56;;;;;;;16.88;10.63;;;;;;;;;;4925262;28;20401;-83
2023/07/06 06:08:22;;;;;;;13.70;9.65;;;;;;;;;;4933644;28;20377;-83
2023/07/06 06:10:52;;;;;;;17.50;10.75;;;;;;;;;;4956180;28;20581;-84
2023/07/06 06:13:18;;;;;;;17.38;11.10;;;;;;;;;;4942413;28;20478;-83
2023/07/06 06:15:44;;;;;;;17.83;11.15;;;;;;;;;;4961156;28;20176;-83
2023/07/06 06:18:11;;;;;;;13.88;9.52;;;;;;;;;;4964531;28;22827;-84
2023/07/06 06:20:37;;;;;;;17.50;10.43;;;;;;;;;;4933946;28;20105;-83
2023/07/06 06:23:04;;;;;;;16.83;10.30;;;;;;;;;;4963935;28;20421;-84
2023/07/06 06:25:31;;;;;;;17.33;10.55;;;;;;;;;;4932818;28;20038;-84
2023/07/06 06:27:57;;;;;;;15.98;10.27;;;;;;;;;;4949093;28;20050;-84
2023/07/06 06:30:23;;;;;;;17.15;10.70;;;;;;;;;;4959513;28;20046;-83
2023/07/06 06:32:49;;;;;;;16.67;10.02;;;;;;;;;;4955629;28;20071;-83
2023/07/06 06:35:19;;;;;;;15.35;10.07;;;;;;;;;;4934982;28;20046;-84
2023/07/06 06:37:45;;;;;;;19.10;11.70;;;;;;;;;;4925304;28;20089;-83
2023/07/06 06:40:11;;;;;;;14.02;10.25;;;;;;;;;;4953896;28;20053;-83
2023/07/06 06:42:39;;;;;;;17.05;9.73;;;;;;;;;;4926572;28;20054;-84
2023/07/06 06:45:06;;;;;;;16.95;9.82;;;;;;;;;;4950695;28;20042;-84
2023/07/06 06:47:32;;;;;;;16.38;9.15;;;;;;;;;;4964926;28;20034;-84
2023/07/06 06:49:58;;;;;;;14.82;9.45;;;;;;;;;;4968982;28;20084;-84
2023/07/06 06:52:26;;;;;;;13.40;8.48;;;;;;;;;;4950868;28;20129;-84
2023/07/06 06:54:53;;;;;;;14.30;9.43;;;;;;;;;;4967170;28;20049;-84
2023/07/06 06:57:22;;;;;;;15.82;9.43;;;;;;;;;;4953287;28;20437;-84
2023/07/06 06:59:48;;;;;;;13.32;9.40;;;;;;;;;;4935999;28;20053;-83
2023/07/06 07:02:17;;;;;;;16.48;9.40;;;;;;;;;;4967955;28;20116;-84
2023/07/06 07:04:43;;;;;;;16.60;9.10;;;;;;;;;;4961711;28;20431;-84
2023/07/06 07:07:09;;;;;;;16.05;8.77;;;;;;;;;;4952925;28;20038;-84
2023/07/06 07:09:36;;;;;;;15.63;9.00;;;;;;;;;;4955305;28;20057;-84
2023/07/06 07:12:02;;;;;;;15.35;8.52;;;;;;;;;;4951934;28;20382;-84
2023/07/06 07:14:28;;;;;;;13.95;9.65;;;;;;;;;;4939789;28;20552;-83
2023/07/06 07:16:55;;;;;;;17.30;9.13;;;;;;;;;;4951738;28;20398;-84
2023/07/06 07:19:21;;;;;;;14.88;7.95;;;;;;;;;;4943959;28;20125;-84
2023/07/06 07:21:49;;;;;;;12.52;8.45;;;;;;;;;;4947660;28;20042;-84
2023/07/06 07:24:15;;;;;;;14.00;8.40;;;;;;;;;;4964516;28;20524;-84
2023/07/06 07:26:41;;;;;;;17.30;8.32;;;;;;;;;;4942229;28;20038;-84
2023/07/06 07:29:07;;;;;;;14.30;7.90;;;;;;;;;;4914434;28;20045;-84
2023/07/06 07:31:33;;;;;;;12.80;8.77;;;;;;;;;;4923390;28;20593;-84
2023/07/06 07:33:59;;;;;;;15.18;7.65;;;;;;;;;;4934861;28;20157;-84
2023/07/06 07:36:25;;;;;;;13.98;8.35;;;;;;;;;;4957726;28;20081;-84
2023/07/06 07:38:53;;;;;;;12.90;8.18;;;;;;;;;;4953124;28;20038;-83
2023/07/06 07:41:19;;;;;;;11.10;7.30;;;;;;;;;;4952732;28;20048;-84
2023/07/06 07:43:46;;;;;;;9.93;6.63;;;;;;;;;;4930832;28;20059;-84
2023/07/06 07:46:12;;;;;;;10.15;6.63;;;;;;;;;;4952921;28;20434;-84
2023/07/06 07:48:45;;;;;;;12.25;6.35;;;;;;;;;;4944295;28;20491;-84
2023/07/06 07:51:12;;;;;;;10.68;6.60;;;;;;;;;;4952679;28;20042;-84
2023/07/06 07:53:38;;;;;;;9.95;6.28;;;;;;;;;;4954186;28;20062;-84
2023/07/06 07:56:05;;;;;;;11.60;6.40;;;;;;;;;;4939576;28;20489;-83
2023/07/06 07:58:31;;;;;;;13.88;6.65;;;;;;;;;;4958077;28;20038;-84
2023/07/06 08:00:57;;;;;;;8.18;5.10;;;;;;;;;;4954246;28;20157;-84
2023/07/06 08:03:24;;;;;;;13.63;6.88;;;;;;;;;;4976420;28;20097;-84
2023/07/06 08:05:53;;;;;;;11.70;6.18;;;;;;;;;;4960967;28;20034;-85
2023/07/06 08:08:19;;;;;;;11.43;6.13;;;;;;;;;;4958966;28;20760;-84
2023/07/06 08:10:46;;;;;;;10.73;6.15;;;;;;;;;;4960961;28;20057;-84
2023/07/06 08:13:12;;;;;;;10.90;5.35;;;;;;;;;;4971502;28;20046;-84
2023/07/06 08:15:38;;;;;;;11.32;5.55;;;;;;;;;;4960867;28;20047;-84
2023/07/06 08:18:07;;;;;;;11.77;6.43;;;;;;;;;;4947904;28;20042;-84
2023/07/06 08:20:38;;;;;;;10.15;5.65;;;;;;;;;;4980849;28;20057;-84
2023/07/06 08:23:08;;;;;;;11.75;5.75;;;;;;;;;;4959489;28;20092;-84
2023/07/06 08:25:37;;;;;;;11.75;5.18;;;;;;;;;;4967579;28;20070;-84
2023/07/06 08:28:07;;;;;;;10.40;5.30;;;;;;;;;;4966316;28;20074;-84
2023/07/06 08:30:33;;;;;;;10.10;6.32;;;;;;;;;;4959290;28;20049;-84
2023/07/06 08:33:02;;;;;;;10.70;5.72;;;;;;;;;;4957700;28;20611;-84
2023/07/06 08:35:29;;;;;;;9.77;4.90;;;;;;;;;;4957184;28;20039;-84
2023/07/06 08:37:55;;;;;;;8.90;4.70;;;;;;;;;;4976381;28;20038;-85
2023/07/06 08:40:21;;;;;;;7.97;4.57;;;;;;;;;;4974900;28;20042;-84
2023/07/06 08:42:48;;;;;;;7.47;4.75;;;;;;;;;;4958752;28;20145;-84
2023/07/06 08:45:23;;;;;;;7.05;4.65;;;;;;;;;;4956746;28;20455;-84
2023/07/06 08:47:50;;;;;;;9.10;4.10;;;;;;;;;;4950562;28;20489;-84
2023/07/06 08:50:17;;;;;;;9.02;4.60;;;;;;;;;;4954088;28;20054;-84
2023/07/06 08:52:43;;;;;;;11.75;5.40;;;;;;;;;;4964492;28;20034;-84
2023/07/06 08:55:13;;;;;;;7.38;4.03;;;;;;;;;;4962701;28;20041;-84
2023/07/06 08:57:39;;;;;;;8.43;4.50;;;;;;;;;;4947686;28;20042;-84
2023/07/06 09:00:07;;;;;;;7.20;4.35;;;;;;;;;;4961417;28;20038;-84
2023/07/06 09:02:34;;;;;;;7.97;4.07;;;;;;;;;;4967048;28;20038;-84
2023/07/06 09:05:01;;;;;;;7.28;3.83;;;;;;;;;;4924924;28;20493;-84
2023/07/06 09:07:34;;;;;;;5.05;3.80;;;;;;;;;;4952139;28;20058;-84
2023/07/06 09:10:00;;;;;;;6.07;3.53;;;;;;;;;;4946878;28;20105;-84
2023/07/06 09:12:33;;;;;;;8.07;4.30;;;;;;;;;;4934028;28;20122;-84
2023/07/06 09:14:59;;;;;;;7.28;4.03;;;;;;;;;;4931531;28;20054;-84
2023/07/06 09:17:26;;;;;;;6.75;3.97;;;;;;;;;;4954491;28;20062;-84
2023/07/06 09:19:56;;;;;;;8.55;3.03;;;;;;;;;;4941531;28;20416;-85
2023/07/06 09:22:22;;;;;;;6.05;3.22;;;;;;;;;;4949313;28;20038;-84
2023/07/06 09:24:49;;;;;;;6.50;3.30;;;;;;;;;;4951266;28;20603;-84
2023/07/06 09:27:28;;;;;;;6.43;3.00;;;;;;;;;;4949364;28;20048;-84
2023/07/06 09:29:55;;;;;;;;;;;;;;;;;;4948822;28;20305;-84
2023/07/06 09:32:21;;;;;;;6.03;3.03;;;;;;;;;;4983297;28;19925;-84
2023/07/06 09:34:55;;;;;;;4.05;2.90;;;;;;;;;;4978686;28;20054;-84
2023/07/06 09:37:21;;;;;;;6.35;3.20;;;;;;;;;;4963897;28;20351;-84
2023/07/06 09:39:59;;;;;;;9.00;3.22;;;;;;;;;;4931820;28;20404;-84
2023/07/06 09:42:25;;;;;;;4.22;2.67;;;;;;;;;;4967320;28;20153;-84
2023/07/06 09:44:51;;;;;;;7.70;2.83;;;;;;;;;;4935544;28;20053;-84
2023/07/06 09:47:17;;;;;;;7.05;2.80;;;;;;;;;;4955811;28;20481;-84
2023/07/06 09:49:45;;;;;;;4.47;2.10;;;;;;;;;;4982634;28;20053;-84
2023/07/06 09:52:12;;;;;;;5.95;2.53;;;;;;;;;;4942844;28;20577;-84
2023/07/06 09:54:41;;;;;;;5.15;2.20;;;;;;;;;;4951860;28;20045;-84
2023/07/06 09:57:11;;;;;;;5.18;2.45;;;;;;;;;;4947189;28;20420;-84
2023/07/06 09:59:38;;;;;;;5.13;2.00;;;;;;;;;;4953792;28;20095;-84
2023/07/06 10:02:31;;;;;;;3.20;1.98;;;;;;;;;;4947525;28;20452;-84
2023/07/06 10:05:00;;;;;;;6.38;2.30;;;;;;;;;;4937369;28;20042;-85
2023/07/06 10:07:31;;;;;;;4.65;2.15;;;;;;;;;;4983611;28;20030;-84
2023/07/06 10:10:17;;;;;;;5.00;2.22;;;;;;;;;;4950900;28;20092;-84
2023/07/06 10:12:45;;;;;;;5.13;2.10;;;;;;;;;;4954903;28;20042;-84
2023/07/06 10:15:29;;;;;;;2.85;1.98;;;;;;;;;;4918642;28;20397;-84
2023/07/06 10:18:10;;;;;;;3.95;1.83;;;;;;;;;;4952022;28;20527;-84
2023/07/06 10:20:44;;;;;;;6.90;2.30;;;;;;;;;;4955516;28;20045;-84
2023/07/06 10:23:16;;;;;;;3.88;1.55;;;;;;;;;;4922228;28;21291;-84
2023/07/06 10:25:46;;;;;;;3.17;1.48;;;;;;;;;;4943073;28;20490;-84
2023/07/06 10:28:32;;;;;;;5.22;1.75;;;;;;;;;;4952866;28;20058;-84
2023/07/06 10:30:58;;;;;;;3.05;1.85;;;;;;;;;;4950285;28;20046;-84
2023/07/06 10:33:29;;;;;;;2.22;1.67;;;;;;;;;;4960177;28;20497;-84
2023/07/06 10:35:55;;;;;;;2.63;2.13;;;;;;;;;;4937327;28;20043;-84
2023/07/06 10:38:21;;;;;;;2.80;2.22;;;;;;;;;;4925281;28;20073;-84
2023/07/06 10:40:51;;;;;;;4.95;2.80;;;;;;;;;;4942283;28;20456;-84
2023/07/06 10:43:20;;;;;;;3.75;2.13;;;;;;;;;;4943950;28;20066;-84
2023/07/06 10:45:46;;;;;;;4.65;2.50;;;;;;;;;;4926484;28;20504;-85
2023/07/06 10:48:32;;;;;;;4.82;2.17;;;;;;;;;;4956657;28;20046;-84
2023/07/06 10:51:04;;;;;;;6.47;2.45;;;;;;;;;;4940536;28;20054;-84
2023/07/06 10:53:37;;;;;;;2.97;2.33;;;;;;;;;;4959427;28;20042;-85
2023/07/06 10:56:03;;;;;;;5.63;2.25;;;;;;;;;;4939450;28;20519;-84
2023/07/06 10:58:36;;;;;;;2.40;1.75;;;;;;;;;;4975587;28;20046;-84
2023/07/06 11:01:08;;;;;;;2.45;2.05;;;;;;;;;;4972125;28;20126;-85
2023/07/06 11:03:35;;;;;;;5.45;2.38;;;;;;;;;;4944478;28;20093;-84
2023/07/06 11:06:08;;;;;;;3.50;1.75;;;;;;;;;;4957312;28;20125;-85
2023/07/06 11:08:53;;;;;;;3.47;1.90;;;;;;;;;;4955470;28;20042;-84
2023/07/06 11:11:20;;;;;;;4.07;2.00;;;;;;;;;;4969019;28;21357;-84
2023/07/06 11:13:53;;;;;;;3.13;1.92;;;;;;;;;;4934961;28;20049;-85
2023/07/06 11:16:41;;;;;;;3.95;2.13;;;;;;;;;;4938735;28;20038;-85
2023/07/06 11:19:08;;;;;;;2.20;2.00;;;;;;;;;;4951153;28;20042;-85
2023/07/06 11:21:43;;;;;;;3.60;1.70;;;;;;;;;;4957817;28;20049;-85
2023/07/06 11:24:11;;;;;;;3.78;1.70;;;;;;;;;;4937746;28;20116;-85
2023/07/06 11:26:54;;;;;;;7.20;2.33;;;;;;;;;;4928321;28;20077;-85
2023/07/06 11:29:21;;;;;;;7.07;2.10;;;;;;;;;;4941620;28;20046;-84
2023/07/06 11:32:11;;;;;;;4.22;2.30;;;;;;;;;;4926137;28;20575;-85
2023/07/06 11:34:56;;;;;;;5.65;2.03;;;;;;;;;;4956083;28;20046;-84
2023/07/06 11:37:32;;;;;;;5.65;2.33;;;;;;;;;;4976155;28;20392;-84
2023/07/06 11:40:09;;;;;;;4.13;1.95;;;;;;;;;;4948830;28;20038;-85
2023/07/06 11:42:53;;;;;;;2.92;1.77;;;;;;;;;;4923560;28;20054;-84
2023/07/06 11:45:32;;;;;;;4.95;2.47;;;;;;;;;;4972683;28;20058;-85
2023/07/06 11:48:12;;;;;;;4.28;1.95;;;;;;;;;;4936730;28;20053;-85
2023/07/06 11:50:38;;;;;;;3.65;1.90;;;;;;;;;;4941349;28;20042;-84
2023/07/06 11:53:17;;;;;;;3.40;1.88;;;;;;;;;;4973031;28;20030;-85
2023/07/06 11:55:54;;;;;;;5.45;1.85;;;;;;;;;;4932102;28;20080;-85
2023/07/06 11:58:43;;;;;;;5.85;1.90;;;;;;;;;;4947324;28;20082;-85
2023/07/06 12:01:20;;;;;;;3.35;1.95;;;;;;;;;;4925603;28;21623;-85
2023/07/06 12:03:47;;;;;;;3.67;1.88;;;;;;;;;;4952750;28;20497;-85
2023/07/06 12:06:15;;;;;;;6.82;1.90;;;;;;;;;;4936643;28;20125;-85
2023/07/06 12:08:41;;;;;;;3.83;1.88;;;;;;;;;;4923576;28;20133;-85
2023/07/06 12:11:15;;;;;;;3.38;1.50;;;;;;;;;;4967291;28;20098;-85
2023/07/06 12:13:41;;;;;;;6.28;1.67;;;;;;;;;;4940013;28;20077;-85
2023/07/06 12:16:13;;;;;;;3.63;1.50;;;;;;;;;;4950177;28;20042;-85
2023/07/06 12:18:39;;;;;;;4.60;1.65;;;;;;;;;;4953799;28;20051;-85
2023/07/06 12:21:05;;;;;;;4.47;1.60;;;;;;;;;;4949107;28;20042;-85
2023/07/06 12:23:32;;;;;;;3.60;1.10;;;;;;;;;;4925622;28;20445;-85
2023/07/06 12:25:58;;;;;;;3.53;1.30;;;;;;;;;;4951635;28;20038;-85
2023/07/06 12:28:31;;;;;;;1.85;1.10;;;;;;;;;;4945281;28;20181;-85
2023/07/06 12:31:02;;;;;;;2.30;1.30;;;;;;;;;;4932041;28;20150;-85
2023/07/06 12:33:29;;;;;;;2.40;1.20;;;;;;;;;;4929447;28;20042;-86
2023/07/06 12:35:55;;;;;;;1.92;1.10;;;;;;;;;;4936825;28;20043;-86
2023/07/06 12:38:22;;;;;;;2.13;1.20;;;;;;;;;;4942110;28;20129;-86
2023/07/06 12:40:48;;;;;;;2.97;1.60;;;;;;;;;;4925321;28;20077;-86
2023/07/06 12:43:34;;;;;;;2.17;1.10;;;;;;;;;;4932590;28;20053;-86
2023/07/06 12:46:00;;;;;;;2.40;1.30;;;;;;;;;;4950960;28;20046;-85
2023/07/06 12:48:26;;;;;;;1.48;1.15;;;;;;;;;;4954926;28;20104;-85
2023/07/06 12:50:54;;;;;;;4.22;1.50;;;;;;;;;;4934514;28;20100;-86
2023/07/06 12:53:33;;;;;;;3.17;1.42;;;;;;;;;;4922567;28;20046;-86
2023/07/06 12:56:06;;;;;;;2.72;1.10;;;;;;;;;;4918013;28;20042;-86
2023/07/06 12:58:36;;;;;;;3.53;1.35;;;;;;;;;;4937469;28;20101;-86
2023/07/06 13:01:03;;;;;;;3.60;1.50;;;;;;;;;;4918772;28;20042;-85
2023/07/06 13:03:29;;;;;;;2.88;1.70;;;;;;;;;;4974547;28;20046;-85
2023/07/06 13:05:55;;;;;;;4.60;1.63;;;;;;;;;;4915329;28;20046;-86
2023/07/06 13:08:22;;;;;;;4.95;1.85;;;;;;;;;;4955360;28;20043;-85
2023/07/06 13:11:02;;;;;;;3.60;1.98;;;;;;;;;;4954941;28;21622;-85
2023/07/06 13:13:32;;;;;;;3.42;1.83;;;;;;;;;;4937008;28;20046;-86
2023/07/06 13:16:01;;;;;;;5.35;1.45;;;;;;;;;;4935125;28;20034;-86
2023/07/06 13:18:27;;;;;;;4.72;1.98;;;;;;;;;;4972624;28;20050;-86
2023/07/06 13:20:53;;;;;;;4.50;2.10;;;;;;;;;;4935910;28;20046;-86
2023/07/06 13:23:20;;;;;;;3.50;1.67;;;;;;;;;;4968989;28;20085;-86
2023/07/06 13:25:49;;;;;;;2.97;1.58;;;;;;;;;;4938868;28;20363;-85
2023/07/06 13:28:15;;;;;;;3.15;1.73;;;;;;;;;;4935484;28;20088;-85
2023/07/06 13:30:44;;;;;;;3.10;1.73;;;;;;;;;;4974496;28;20042;-85
2023/07/06 13:33:12;;;;;;;5.20;2.17;;;;;;;;;;4947848;28;20989;-85
2023/07/06 13:35:39;;;;;;;4.00;1.70;;;;;;;;;;4952446;28;20043;-86
2023/07/06 13:38:05;;;;;;;4.72;1.63;;;;;;;;;;4951102;28;20056;-86
2023/07/06 13:40:31;;;;;;;4.25;1.90;;;;;;;;;;4954476;28;20181;-86
2023/07/06 13:43:00;;;;;;;4.53;1.90;;;;;;;;;;4962876;28;20505;-86
2023/07/06 13:45:30;;;;;;;4.93;1.70;;;;;;;;;;4934918;28;20125;-86
2023/07/06 13:47:56;;;;;;;3.22;2.17;;;;;;;;;;4934350;28;20389;-85
2023/07/06 13:50:25;;;;;;;3.92;1.60;;;;;;;;;;4940189;28;20057;-86
2023/07/06 13:52:54;;;;;;;4.68;1.80;;;;;;;;;;4934760;28;20647;-85
2023/07/06 13:55:34;;;;;;;3.03;1.70;;;;;;;;;;4940646;28;20053;-85
2023/07/06 13:58:00;;;;;;;2.80;1.45;;;;;;;;;;4935343;28;20515;-85
2023/07/06 14:00:27;;;;;;;2.08;1.50;;;;;;;;;;4924802;28;20052;-85
2023/07/06 14:02:54;;;;;;;4.45;1.65;;;;;;;;;;4919995;28;20053;-86
2023/07/06 14:05:21;;;;;;;2.97;1.83;;;;;;;;;;4940388;28;20042;-86
2023/07/06 14:07:50;;;;;;;3.22;1.58;;;;;;;;;;4940270;28;20045;-85
2023/07/06 14:10:19;;;;;;;3.67;1.60;;;;;;;;;;4939784;28;20125;-86
2023/07/06 14:12:49;;;;;;;2.90;1.50;;;;;;;;;;4938964;28;20073;-85
2023/07/06 14:15:19;;;;;;;2.58;1.75;;;;;;;;;;4953947;28;20054;-86
2023/07/06 14:17:46;;;;;;;4.07;2.38;;;;;;;;;;4956541;28;20473;-85
2023/07/06 14:20:12;;;;;;;3.13;1.92;;;;;;;;;;4948973;28;20497;-86
2023/07/06 14:22:38;;;;;;;4.40;2.15;;;;;;;;;;4939189;28;20061;-86
2023/07/06 14:25:14;;;;;;;4.10;2.75;;;;;;;;;;4916929;28;20512;-85
2023/07/06 14:27:40;;;;;;;5.18;2.65;;;;;;;;;;4938068;28;20070;-85
2023/07/06 14:30:07;;;;;;;5.93;2.90;;;;;;;;;;4933832;28;20052;-86
2023/07/06 14:32:33;;;;;;;6.60;2.85;;;;;;;;;;4938976;28;20038;-86
2023/07/06 14:34:59;;;;;;;6.72;2.50;;;;;;;;;;4934038;28;20130;-85
2023/07/06 14:37:25;;;;;;;4.75;2.95;;;;;;;;;;4955015;28;20077;-85
2023/07/06 14:39:53;;;;;;;5.85;2.45;;;;;;;;;;4953144;28;20043;-86
2023/07/06 14:42:19;;;;;;;5.22;2.50;;;;;;;;;;4938287;28;20474;-86
2023/07/06 14:44:45;;;;;;;5.78;2.30;;;;;;;;;;4937483;28;20058;-85
2023/07/06 14:47:11;;;;;;;3.30;2.08;;;;;;;;;;4916958;28;20045;-86
2023/07/06 14:49:37;;;;;;;4.78;2.33;;;;;;;;;;4936842;28;20042;-85
2023/07/06 14:52:04;;;;;;;3.88;2.35;;;;;;;;;;4946336;28;20043;-86